createdAt,value
2023-02-03T00:01:45.967Z,99.90
2023-02-03T00:04:14.279Z,99.90
2023-02-03T00:06:43.888Z,99.90
2023-02-03T00:09:12.344Z,99.90
2023-02-03T00:11:43.929Z,99.90
2023-02-03T00:14:13.525Z,99.90
2023-02-03T00:16:46.627Z,99.90
2023-02-03T00:19:17.724Z,99.90
2023-02-03T00:21:47.796Z,99.90
2023-02-03T00:24:18.993Z,99.90
2023-02-03T00:26:52.510Z,99.90
2023-02-03T00:29:26.121Z,99.90
2023-02-03T00:31:58.739Z,99.90
2023-02-03T00:34:31.416Z,99.90
2023-02-03T00:37:00.757Z,99.90
2023-02-03T00:39:33.561Z,99.90
2023-02-03T00:42:03.321Z,99.90
2023-02-03T00:44:31.868Z,99.90
2023-02-03T00:47:00.394Z,99.90
2023-02-03T00:49:29.449Z,99.90
2023-02-03T00:51:58.514Z,99.90
2023-02-03T00:54:26.798Z,99.90
2023-02-03T00:56:56.411Z,99.90
2023-02-03T00:59:26.030Z,99.90
2023-02-03T01:01:55.787Z,99.90
2023-02-03T01:07:32.938Z,99.90
2023-02-03T01:10:01.307Z,99.90
2023-02-03T01:12:31.330Z,99.90
2023-02-03T01:15:02.506Z,73.30
2023-02-03T01:17:31.999Z,21.10
2023-02-03T01:20:00.716Z,1.00
2023-02-03T01:22:30.909Z,1.00
2023-02-03T01:25:00.407Z,1.00
2023-02-03T01:27:29.929Z,1.00
2023-02-03T01:29:59.173Z,1.00
2023-02-03T01:32:34.060Z,99.90
2023-02-03T01:35:04.189Z,99.90
2023-02-03T01:37:36.657Z,99.90
2023-02-03T01:40:07.168Z,98.30
2023-02-03T01:42:36.589Z,99.90
2023-02-03T01:45:07.012Z,1.00
2023-02-03T01:47:47.656Z,1.00
2023-02-03T01:50:21.097Z,99.90
2023-02-03T01:52:53.741Z,1.00
2023-02-03T01:55:27.848Z,99.90
2023-02-03T01:58:00.796Z,99.90
2023-02-03T02:00:29.622Z,99.90
2023-02-03T02:03:02.595Z,99.90
2023-02-03T02:05:34.649Z,1.00
2023-02-03T02:08:04.556Z,1.00
2023-02-03T02:10:35.509Z,1.00
2023-02-03T02:13:06.061Z,1.00
2023-02-03T02:15:55.676Z,1.00
2023-02-03T02:18:40.976Z,1.00
2023-02-03T02:21:43.372Z,1.00
2023-02-03T02:24:50.737Z,1.00
2023-02-03T02:27:37.321Z,1.00
2023-02-03T02:30:41.315Z,99.90
2023-02-03T02:33:48.119Z,1.00
2023-02-03T02:36:26.915Z,1.00
2023-02-03T02:39:03.125Z,99.90
2023-02-03T02:41:40.914Z,99.90
2023-02-03T02:44:15.750Z,1.00
2023-02-03T02:46:48.315Z,99.90
2023-02-03T02:49:24.891Z,1.00
2023-02-03T02:51:54.854Z,99.90
2023-02-03T02:54:26.967Z,1.00
2023-02-03T02:57:00.203Z,99.90
2023-02-03T02:59:30.254Z,99.90
2023-02-03T03:01:58.523Z,1.00
2023-02-03T03:07:30.360Z,1.00
2023-02-03T03:10:04.258Z,99.90
2023-02-03T03:12:40.345Z,1.00
2023-02-03T03:15:12.829Z,1.00
2023-02-03T03:17:46.976Z,99.90
2023-02-03T03:20:24.329Z,1.00
2023-02-03T03:22:56.116Z,1.00
2023-02-03T03:25:32.463Z,99.90
2023-02-03T03:28:08.636Z,99.90
2023-02-03T03:30:40.256Z,1.00
2023-02-03T03:33:09.688Z,1.00
2023-02-03T03:35:47.217Z,1.00
2023-02-03T03:38:21.534Z,1.00
2023-02-03T03:40:59.612Z,1.00
2023-02-03T03:43:34.676Z,1.00
2023-02-03T03:46:13.228Z,1.00
2023-02-03T03:48:51.092Z,1.00
2023-02-03T03:51:27.896Z,51.10
2023-02-03T03:54:01.902Z,99.90
2023-02-03T03:56:35.831Z,1.00
2023-02-03T03:59:05.522Z,79.80
2023-02-03T04:01:35.692Z,99.90
2023-02-03T04:04:09.236Z,99.90
2023-02-03T04:06:41.820Z,99.90
2023-02-03T04:09:11.465Z,99.90
2023-02-03T04:12:03.067Z,19.60
2023-02-03T04:14:32.949Z,1.00
2023-02-03T04:17:02.974Z,1.00
2023-02-03T04:19:32.918Z,99.90
2023-02-03T04:22:04.015Z,1.00
2023-02-03T04:24:33.872Z,99.90
2023-02-03T04:27:04.854Z,1.00
2023-02-03T04:29:38.246Z,1.00
2023-02-03T04:32:07.044Z,1.00
2023-02-03T04:34:40.717Z,99.90
2023-02-03T04:37:12.367Z,1.00
2023-02-03T04:40:04.557Z,99.90
2023-02-03T04:42:39.939Z,1.00
2023-02-03T04:45:11.979Z,1.00
2023-02-03T04:47:40.686Z,99.90
2023-02-03T04:50:10.779Z,99.90
2023-02-03T04:52:40.696Z,1.00
2023-02-03T04:55:41.573Z,1.00
2023-02-03T04:58:11.377Z,1.00
2023-02-03T05:00:42.656Z,1.00
2023-02-03T05:03:11.150Z,1.00
2023-02-03T05:05:40.821Z,1.00
2023-02-03T05:08:11.983Z,1.00
2023-02-03T05:10:50.486Z,99.90
2023-02-03T05:13:17.538Z,1.00
2023-02-03T05:15:48.169Z,1.00
2023-02-03T05:18:17.768Z,99.90
2023-02-03T05:20:48.893Z,1.00
2023-02-03T05:23:22.735Z,99.90
2023-02-03T05:25:50.947Z,99.90
2023-02-03T05:28:19.271Z,99.90
2023-02-03T05:30:50.477Z,99.90
2023-02-03T05:33:20.663Z,25.00
2023-02-03T05:35:48.951Z,1.00
2023-02-03T05:38:19.853Z,1.00
2023-02-03T05:41:07.598Z,1.00
2023-02-03T05:43:40.885Z,1.00
2023-02-03T05:46:24.071Z,99.90
2023-02-03T05:48:54.941Z,99.90
2023-02-03T05:51:25.061Z,99.90
2023-02-03T05:54:06.447Z,99.90
2023-02-03T05:56:38.357Z,1.00
2023-02-03T05:59:07.228Z,1.00
2023-02-03T06:01:36.045Z,99.90
2023-02-03T06:04:05.553Z,99.90
2023-02-03T06:06:35.469Z,99.90
2023-02-03T06:09:07.432Z,99.90
2023-02-03T06:11:39.235Z,99.90
2023-02-03T06:14:42.086Z,99.90
2023-02-03T06:17:21.521Z,99.90
2023-02-03T06:20:01.200Z,99.90
2023-02-03T06:22:45.443Z,99.90
2023-02-03T06:25:15.670Z,99.90
2023-02-03T06:27:44.940Z,99.90
2023-02-03T06:30:36.599Z,99.90
2023-02-03T06:33:08.824Z,99.90
2023-02-03T06:35:37.644Z,99.90
2023-02-03T06:38:07.206Z,99.90
2023-02-03T06:41:27.051Z,99.90
2023-02-03T06:44:15.643Z,99.90
2023-02-03T06:59:55.115Z,99.90
2023-02-03T07:02:23.570Z,99.90
2023-02-03T07:04:54.931Z,99.90
2023-02-03T07:07:24.748Z,99.90
2023-02-03T07:09:53.129Z,99.90
2023-02-03T07:12:22.937Z,99.90
2023-02-03T07:14:51.242Z,99.90
2023-02-03T07:17:23.987Z,99.90
2023-02-03T07:19:52.690Z,99.90
2023-02-03T07:22:21.484Z,99.90
2023-02-03T07:24:53.877Z,99.90
2023-02-03T07:27:38.915Z,99.90
2023-02-03T07:30:18.894Z,99.90
2023-02-03T07:32:54.295Z,99.90
2023-02-03T07:35:32.180Z,99.90
2023-02-03T07:38:01.070Z,99.90
2023-02-03T07:40:29.549Z,95.20
2023-02-03T07:42:59.157Z,83.00
2023-02-03T07:45:33.059Z,83.20
2023-02-03T07:48:11.487Z,96.90
2023-02-03T07:50:40.790Z,90.50
2023-02-03T07:53:10.664Z,82.00
2023-02-03T07:55:40.365Z,82.90
2023-02-03T07:58:09.609Z,77.60
2023-02-03T08:00:38.345Z,68.00
2023-02-03T08:03:08.017Z,68.70
2023-02-03T08:05:45.945Z,23.80
2023-02-03T08:08:14.560Z,24.20
2023-02-03T08:10:44.364Z,27.00
2023-02-03T08:13:13.803Z,30.00
2023-02-03T08:15:45.930Z,28.40
2023-02-03T08:18:51.096Z,39.70
2023-02-03T08:21:29.451Z,38.20
2023-02-03T08:24:36.606Z,56.30
2023-02-03T08:27:09.077Z,55.30
2023-02-03T08:29:37.307Z,59.70
2023-02-03T08:32:13.813Z,72.60
2023-02-03T08:34:48.605Z,95.60
2023-02-03T08:37:18.507Z,84.60
2023-02-03T08:39:48.518Z,90.00
2023-02-03T08:45:11.895Z,94.30
2023-02-03T08:47:41.311Z,94.10
2023-02-03T08:50:15.980Z,94.50
2023-02-03T08:57:07.712Z,83.20
2023-02-03T08:59:52.385Z,87.70
2023-02-03T09:02:22.659Z,72.50
2023-02-03T09:08:00.983Z,82.20
2023-02-03T09:10:31.274Z,92.20
2023-02-03T09:16:50.067Z,90.60
2023-02-03T09:19:45.768Z,92.80
2023-02-03T09:22:15.800Z,91.80
2023-02-03T09:24:49.726Z,99.90
2023-02-03T09:27:22.535Z,99.90
2023-02-03T09:29:52.026Z,96.40
2023-02-03T09:32:21.747Z,83.20
2023-02-03T09:34:51.132Z,81.10
2023-02-03T09:37:22.983Z,58.60
2023-02-03T09:40:31.286Z,74.00
2023-02-03T09:43:23.110Z,67.20
2023-02-03T09:45:51.544Z,99.90
2023-02-03T09:48:25.808Z,69.90
2023-02-03T09:50:55.071Z,90.00
2023-02-03T09:53:36.391Z,75.90
2023-02-03T09:56:06.297Z,82.60
2023-02-03T09:58:37.255Z,68.50
2023-02-03T10:01:19.957Z,99.90
2023-02-03T10:10:16.410Z,62.10
2023-02-03T10:13:37.199Z,55.90
2023-02-03T10:16:39.041Z,70.40
2023-02-03T10:19:18.121Z,81.00
2023-02-03T10:22:06.295Z,76.90
2023-02-03T10:24:44.539Z,72.20
2023-02-03T10:27:22.282Z,79.80
2023-02-03T10:30:04.341Z,99.90
2023-02-03T10:32:37.179Z,98.30
2023-02-03T10:35:26.255Z,99.90
2023-02-03T10:38:04.824Z,99.90
2023-02-03T10:40:40.099Z,99.90
2023-02-03T10:43:33.192Z,99.90
2023-02-03T10:46:03.781Z,99.90
2023-02-03T10:48:52.560Z,99.90
2023-02-03T10:51:45.540Z,99.90
2023-02-03T10:54:42.674Z,99.90
2023-02-03T10:57:34.367Z,99.30
2023-02-03T11:00:24.567Z,98.30
2023-02-03T11:03:15.943Z,95.20
2023-02-03T11:06:25.373Z,96.40
2023-02-03T11:09:02.514Z,85.80
2023-02-03T11:11:33.978Z,69.10
2023-02-03T11:17:54.386Z,84.30
2023-02-03T11:20:28.906Z,69.80
2023-02-03T11:22:57.832Z,79.80
2023-02-03T11:25:57.108Z,99.90
2023-02-03T11:31:50.423Z,99.90
2023-02-03T11:34:26.683Z,1.00
2023-02-03T11:43:42.960Z,1.00
2023-02-03T11:46:12.210Z,1.00
2023-02-03T11:48:50.000Z,1.00
2023-02-03T11:51:29.936Z,22.70
2023-02-03T11:54:14.853Z,99.90
2023-02-03T11:57:15.321Z,1.00
2023-02-03T12:00:14.406Z,1.00
2023-02-03T12:03:14.257Z,1.00
2023-02-03T12:06:12.673Z,1.00
2023-02-03T12:09:27.774Z,1.00
2023-02-03T12:12:35.280Z,1.00
2023-02-03T12:18:31.260Z,99.90
2023-02-03T12:24:40.472Z,99.90
2023-02-03T12:27:36.302Z,99.90
2023-02-03T12:30:15.263Z,99.90
2023-02-03T12:32:50.596Z,99.90
2023-02-03T12:35:23.128Z,99.90
2023-02-03T12:38:08.980Z,99.90
2023-02-03T12:40:41.552Z,99.90
2023-02-03T12:43:23.780Z,99.90
2023-02-03T12:45:56.684Z,99.90
2023-02-03T12:48:28.555Z,99.90
2023-02-03T12:51:49.385Z,99.90
2023-02-03T12:58:01.634Z,1.00
2023-02-03T13:00:42.022Z,1.00
2023-02-03T13:03:32.896Z,1.00
2023-02-03T13:06:12.269Z,1.00
2023-02-03T13:09:26.148Z,1.00
2023-02-03T13:12:05.479Z,1.00
2023-02-03T13:14:39.243Z,1.00
2023-02-03T13:17:24.707Z,1.00
2023-02-03T13:19:59.285Z,99.90
2023-02-03T13:22:31.473Z,99.90
2023-02-03T13:25:10.765Z,99.90
2023-02-03T13:27:47.411Z,99.90
2023-02-03T13:30:51.280Z,99.90
2023-02-03T13:33:40.724Z,99.90
2023-02-03T13:36:39.369Z,99.90
2023-02-03T13:39:40.937Z,99.90
2023-02-03T13:42:32.867Z,99.90
2023-02-03T13:45:15.384Z,99.90
2023-02-03T13:47:53.056Z,99.90
2023-02-03T13:50:27.771Z,99.90
2023-02-03T13:53:16.073Z,99.90
2023-02-03T13:55:49.224Z,99.90
2023-02-03T13:58:24.729Z,99.90
2023-02-03T14:01:33.143Z,99.90
2023-02-03T14:04:08.863Z,99.90
2023-02-03T14:07:36.079Z,99.90
2023-02-03T14:10:31.333Z,99.90
2023-02-03T14:13:12.815Z,99.90
2023-02-03T14:15:44.662Z,99.90
2023-02-03T14:18:33.021Z,99.90
2023-02-03T14:21:23.405Z,99.90
2023-02-03T14:24:10.164Z,99.90
2023-02-03T14:27:07.854Z,99.90
2023-02-03T14:29:39.117Z,99.90
2023-02-03T14:32:10.627Z,99.90
2023-02-03T14:34:43.464Z,99.90
2023-02-03T14:37:22.256Z,99.90
2023-02-03T14:40:26.928Z,99.90
2023-02-03T14:43:27.800Z,99.90
2023-02-03T14:49:43.425Z,99.90
2023-02-03T14:52:29.159Z,99.90
2023-02-03T14:55:21.727Z,99.90
2023-02-03T14:58:22.317Z,99.90
2023-02-03T15:01:06.713Z,99.90
2023-02-03T15:03:42.345Z,99.90
2023-02-03T15:06:41.203Z,99.90
2023-02-03T15:09:57.349Z,99.90
2023-02-03T15:12:50.675Z,99.90
2023-02-03T15:15:24.827Z,99.90
2023-02-03T15:17:56.579Z,99.90
2023-02-03T15:20:44.399Z,99.90
2023-02-03T15:23:22.467Z,99.90
2023-02-03T15:26:15.968Z,99.90
2023-02-03T15:29:07.432Z,1.00
2023-02-03T15:31:45.148Z,1.00
2023-02-03T15:34:30.269Z,99.90
2023-02-03T15:37:14.398Z,99.90
2023-02-03T15:39:54.879Z,1.00
2023-02-03T15:42:29.253Z,1.00
2023-02-03T15:45:04.278Z,1.00
2023-02-03T15:47:37.038Z,1.00
2023-02-03T15:50:30.955Z,1.00
2023-02-03T15:53:13.921Z,99.90
2023-02-03T15:55:56.190Z,99.90
2023-02-03T15:58:28.733Z,1.00
2023-02-03T16:01:05.130Z,1.00
2023-02-03T16:03:40.288Z,99.90
2023-02-03T16:06:16.984Z,1.00
2023-02-03T16:09:03.491Z,1.00
2023-02-03T16:11:59.448Z,1.00
2023-02-03T16:14:43.358Z,99.90
2023-02-03T16:17:34.081Z,99.90
2023-02-03T16:20:34.580Z,99.90
2023-02-03T16:23:18.849Z,99.90
2023-02-03T16:26:33.409Z,99.90
2023-02-03T16:29:38.095Z,99.90
2023-02-03T16:32:59.182Z,99.90
2023-02-03T16:35:50.693Z,99.90
2023-02-03T16:38:50.271Z,99.90
2023-02-03T16:41:55.891Z,99.90
2023-02-03T16:44:45.115Z,99.90
2023-02-03T16:47:49.734Z,99.90
2023-02-03T16:50:39.553Z,99.90
2023-02-03T16:53:12.764Z,99.10
2023-02-03T16:55:56.966Z,91.30
2023-02-03T16:58:29.848Z,80.00
2023-02-03T17:01:39.176Z,43.50
2023-02-03T17:04:19.482Z,43.40
2023-02-03T17:10:32.144Z,24.00
2023-02-03T17:13:02.442Z,28.90
2023-02-03T17:15:34.463Z,22.80
2023-02-03T17:18:02.935Z,22.50
2023-02-03T17:20:39.717Z,8.50
2023-02-03T17:23:13.824Z,1.00
2023-02-03T17:25:45.014Z,4.20
2023-02-03T17:28:19.023Z,4.40
2023-02-03T17:30:56.440Z,9.80
2023-02-03T17:33:30.513Z,8.40
2023-02-03T17:36:18.285Z,2.00
2023-02-03T17:56:11.309Z,1.00
2023-02-03T17:59:28.127Z,1.00
2023-02-03T18:02:09.062Z,1.00
2023-02-03T18:04:37.666Z,1.00
2023-02-03T18:07:05.969Z,1.00
2023-02-03T18:09:42.951Z,1.00
2023-02-03T18:12:13.871Z,1.00
2023-02-03T18:14:47.206Z,1.00
2023-02-03T18:17:22.118Z,1.00
2023-02-03T18:19:56.273Z,1.00
2023-02-03T18:22:27.536Z,1.00
2023-02-03T18:24:57.847Z,1.00
2023-02-03T18:27:27.602Z,1.00
2023-02-03T18:30:04.458Z,1.00
2023-02-03T18:32:49.426Z,1.00
2023-02-03T18:35:22.462Z,1.00
2023-02-03T18:38:19.455Z,1.00
2023-02-03T18:40:56.426Z,1.00
2023-02-03T18:43:26.986Z,1.00
2023-02-03T18:45:56.487Z,1.00
2023-02-03T18:48:28.495Z,1.00
2023-02-03T18:51:01.553Z,1.00
2023-02-03T18:53:33.483Z,1.00
2023-02-03T18:56:18.021Z,1.00
2023-02-03T18:58:58.990Z,1.00
2023-02-03T19:01:29.814Z,1.00
2023-02-03T19:04:04.170Z,1.00
2023-02-03T19:06:36.176Z,1.00
2023-02-03T19:09:07.094Z,1.00
2023-02-03T19:11:38.452Z,1.00
2023-02-03T19:14:07.893Z,1.00
2023-02-03T19:16:42.092Z,1.00
2023-02-03T19:19:17.682Z,1.00
2023-02-03T19:21:51.108Z,1.00
2023-02-03T19:24:26.069Z,1.00
2023-02-03T19:26:56.814Z,1.00
2023-02-03T19:29:29.517Z,1.00
2023-02-03T19:31:59.182Z,1.00
2023-02-03T19:34:28.910Z,1.00
2023-02-03T19:36:59.666Z,1.00
2023-02-03T19:39:29.131Z,1.00
2023-02-03T19:41:57.412Z,1.00
2023-02-03T19:44:26.255Z,1.00
2023-02-03T19:46:59.678Z,1.00
2023-02-03T19:49:31.968Z,1.00
2023-02-03T19:52:02.361Z,1.00
2023-02-03T19:54:31.421Z,1.00
2023-02-03T19:57:00.562Z,1.00
2023-02-03T19:59:29.918Z,1.00
2023-02-03T20:02:04.085Z,1.00
2023-02-03T20:04:44.537Z,1.00
2023-02-03T20:07:13.801Z,1.00
2023-02-03T20:09:42.187Z,1.00
2023-02-03T20:12:12.410Z,1.00
2023-02-03T20:14:40.658Z,1.00
2023-02-03T20:17:08.946Z,1.00
2023-02-03T20:19:39.785Z,1.00
2023-02-03T20:22:09.464Z,1.00
2023-02-03T20:24:37.750Z,1.00
2023-02-03T20:27:06.146Z,1.00
2023-02-03T20:29:34.639Z,1.00
2023-02-03T20:32:04.686Z,1.00
2023-02-03T20:34:33.712Z,1.00
2023-02-03T20:37:06.405Z,1.00
2023-02-03T20:39:47.710Z,1.00
2023-02-03T20:42:18.984Z,1.00
2023-02-03T20:44:47.826Z,1.00
2023-02-03T20:47:39.716Z,1.00
2023-02-03T20:50:12.247Z,1.00
2023-02-03T20:52:43.956Z,1.00
2023-02-03T20:55:18.476Z,1.00
2023-02-03T20:57:53.739Z,1.00
2023-02-03T21:00:32.207Z,1.00
2023-02-03T21:03:18.440Z,1.00
2023-02-03T21:05:46.993Z,1.00
2023-02-03T21:08:16.374Z,1.00
2023-02-03T21:10:51.818Z,1.00
2023-02-03T21:13:31.574Z,1.00
2023-02-03T21:16:03.650Z,1.00
2023-02-03T21:18:38.840Z,1.00
2023-02-03T21:21:15.033Z,1.00
2023-02-03T21:23:47.708Z,1.00
2023-02-03T21:26:23.398Z,1.00
2023-02-03T21:28:53.309Z,1.00
2023-02-03T21:31:27.425Z,1.00
2023-02-03T21:33:57.092Z,1.00
2023-02-03T21:36:36.748Z,1.00
2023-02-03T21:39:19.158Z,1.00
2023-02-03T21:41:49.132Z,1.00
2023-02-03T21:44:30.180Z,1.00
2023-02-03T21:46:58.492Z,1.00
2023-02-03T21:49:28.397Z,1.00
2023-02-03T21:52:00.427Z,1.00
2023-02-03T21:54:33.849Z,1.00
2023-02-03T21:57:07.102Z,1.00
2023-02-03T21:59:42.806Z,1.00
2023-02-03T22:02:44.718Z,1.00
2023-02-03T22:05:17.641Z,1.00
2023-02-03T22:07:48.379Z,1.00
2023-02-03T22:10:17.403Z,1.00
2023-02-03T22:13:27.974Z,1.00
2023-02-03T22:16:10.201Z,1.00
2023-02-03T22:18:42.308Z,1.00
2023-02-03T22:21:10.690Z,1.00
2023-02-03T22:23:44.852Z,1.00
2023-02-03T22:26:15.257Z,1.00
2023-02-03T22:28:45.824Z,1.00
2023-02-03T22:31:16.463Z,1.00
2023-02-03T22:33:44.876Z,1.00
2023-02-03T22:36:15.312Z,1.00
2023-02-03T22:38:44.462Z,1.00
2023-02-03T22:41:14.140Z,1.00
2023-02-03T22:43:44.640Z,1.00
2023-02-03T22:46:20.442Z,1.00
2023-02-03T22:48:57.277Z,1.00
2023-02-03T22:51:26.099Z,1.00
2023-02-03T22:53:54.432Z,1.00
2023-02-03T22:56:23.782Z,1.00
2023-02-03T22:58:53.824Z,1.00
2023-02-03T23:01:22.577Z,1.00
2023-02-03T23:03:51.351Z,1.00
2023-02-03T23:06:19.769Z,1.00
2023-02-03T23:08:48.546Z,1.00
2023-02-03T23:11:17.939Z,1.00
2023-02-03T23:13:46.219Z,1.00
2023-02-03T23:16:15.916Z,1.00
2023-02-03T23:18:49.853Z,1.00
2023-02-03T23:21:20.441Z,1.00
2023-02-03T23:23:48.731Z,1.00
2023-02-03T23:26:18.402Z,1.00
2023-02-03T23:28:46.715Z,1.00
2023-02-03T23:31:16.652Z,1.00
2023-02-03T23:34:06.474Z,1.00
2023-02-03T23:36:33.867Z,1.00
2023-02-03T23:39:03.381Z,1.00
2023-02-03T23:41:42.519Z,1.00
2023-02-03T23:44:12.059Z,1.00
2023-02-03T23:46:46.559Z,1.00
2023-02-03T23:49:17.002Z,1.00
2023-02-03T23:51:45.232Z,1.00
2023-02-03T23:54:14.067Z,1.00
2023-02-03T23:56:44.913Z,1.00
2023-02-03T23:59:14.990Z,1.00
